Time;durP1;ratioP1;P1;durP2;ratioP2;P2;SDS_P1;SDS_P2;PMS_P1;PMS_P2;Temp;Humidity;BMP_temperature;BMP_pressure;BME280_temperature;BME280_humidity;BME280_pressure;Samples;Min_cycle;Max_cycle;Signal;HPM_P1;HPM_P2
2023/01/26 00:01:40;;;;;;;49.03;20.75;;;;;;;2.26;100.00;101202.63;5093323;28;20119;-74
2023/01/26 00:04:05;;;;;;;53.30;22.98;;;;;;;2.18;100.00;101184.16;5093155;28;20389;-73
2023/01/26 00:06:31;;;;;;;51.50;22.33;;;;;;;2.23;100.00;101186.53;5095048;28;20081;-73
2023/01/26 00:08:58;;;;;;;47.00;20.23;;;;;;;2.32;100.00;101194.53;5077190;28;20036;-72
2023/01/26 00:11:28;;;;;;;51.03;21.92;;;;;;;2.33;100.00;101196.94;5043620;28;20085;-74
2023/01/26 00:13:59;;;;;;;49.53;21.30;;;;;;;2.34;100.00;101198.53;5077005;28;20469;-72
2023/01/26 00:16:26;;;;;;;49.95;21.65;;;;;;;2.35;100.00;101196.50;5076999;28;20051;-73
2023/01/26 00:18:53;;;;;;;56.03;20.90;;;;;;;2.35;100.00;101194.50;5094817;28;20059;-73
2023/01/26 00:21:20;;;;;;;53.90;21.92;;;;;;;2.38;100.00;101192.06;5094800;28;20024;-73
2023/01/26 00:23:47;;;;;;;51.55;21.52;;;;;;;2.34;100.00;101189.28;5076872;28;20089;-72
2023/01/26 00:26:23;;;;;;;46.65;19.77;;;;;;;2.33;100.00;101184.88;5076680;28;20426;-72
2023/01/26 00:28:49;;;;;;;52.53;22.92;;;;;;;2.29;100.00;101193.31;5094611;28;20020;-73
2023/01/26 00:31:18;;;;;;;48.65;20.17;;;;;;;2.29;100.00;101184.09;5076848;28;20063;-73
2023/01/26 00:33:45;;;;;;;46.97;20.25;;;;;;;2.27;100.00;101175.22;5076753;28;20036;-73
2023/01/26 00:36:11;;;;;;;49.72;20.30;;;;;;;2.30;100.00;101192.13;5094561;28;20044;-74
2023/01/26 00:38:45;;;;;;;54.65;20.58;;;;;;;2.32;100.00;101181.25;5076392;28;20032;-73
2023/01/26 00:42:05;;;;;;;56.08;21.15;;;;;;;2.33;100.00;101182.03;5076331;28;20039;-71
2023/01/26 00:43:57;;;;;;;57.88;20.90;;;;;;;2.33;100.00;101173.59;5065129;28;20135;-73
2023/01/26 00:46:25;;;;;;;48.38;21.02;;;;;;;2.29;100.00;101173.59;5076843;28;20028;-72
2023/01/26 00:48:51;;;;;;;54.42;20.52;;;;;;;2.27;100.00;101178.84;5094480;28;20031;-72
2023/01/26 00:51:18;;;;;;;60.58;22.05;;;;;;;2.26;100.00;101174.44;5059555;28;20032;-72
2023/01/26 00:53:44;;;;;;;51.83;21.73;;;;;;;2.26;100.00;101182.09;5075231;28;20382;-74
2023/01/26 00:56:10;;;;;;;54.03;22.13;;;;;;;2.25;100.00;101174.84;5094587;28;20115;-73
2023/01/26 00:58:37;;;;;;;50.00;19.80;;;;;;;2.22;100.00;101179.31;5076233;28;20029;-72
2023/01/26 01:01:03;;;;;;;55.00;21.30;;;;;;;2.20;100.00;101178.91;5093792;28;20469;-72
2023/01/26 01:03:28;;;;;;;53.63;20.83;;;;;;;2.18;100.00;101174.91;5094029;28;20077;-73
2023/01/26 01:05:56;;;;;;;59.40;21.33;;;;;;;2.18;100.00;101180.53;5041254;28;20036;-73
2023/01/26 01:08:21;;;;;;;53.42;22.85;;;;;;;2.19;100.00;101184.97;5074854;28;20026;-72
2023/01/26 01:10:47;;;;;;;57.50;22.45;;;;;;;2.19;100.00;101174.47;5092752;28;20073;-72
2023/01/26 01:13:13;;;;;;;55.33;20.95;;;;;;;2.17;100.00;101176.91;5092874;28;20465;-73
2023/01/26 01:15:49;;;;;;;42.60;20.27;;;;;;;2.17;100.00;101176.13;5093470;28;20024;-74
2023/01/26 01:18:14;;;;;;;56.88;21.33;;;;;;;2.18;100.00;101170.06;5092725;28;20042;-72
2023/01/26 01:20:40;;;;;;;44.65;20.38;;;;;;;2.20;100.00;101178.09;5092825;28;20489;-73
2023/01/26 01:23:05;;;;;;;56.47;19.88;;;;;;;2.11;100.00;101167.28;5092353;28;20052;-72
2023/01/26 01:25:37;;;;;;;49.22;21.75;;;;;;;2.14;100.00;101172.13;5091762;28;20052;-73
2023/01/26 01:28:11;;;;;;;53.60;22.27;;;;;;;2.10;100.00;101179.78;5092712;28;20035;-72
2023/01/26 01:30:46;;;;;;;53.63;22.30;;;;;;;2.07;100.00;101177.78;5092625;28;20038;-72
2023/01/26 01:33:36;;;;;;;56.03;20.10;;;;;;;2.04;100.00;101181.44;5092472;28;20020;-74
2023/01/26 01:36:08;;;;;;;52.67;22.00;;;;;;;2.05;100.00;101174.56;5074445;28;20558;-73
2023/01/26 01:38:35;;;;;;;59.50;22.25;;;;;;;2.06;100.00;101172.56;5075647;28;20047;-72
2023/01/26 01:41:00;;;;;;;53.28;21.58;;;;;;;2.02;100.00;101154.88;5093880;28;20032;-73
2023/01/26 01:43:27;;;;;;;57.08;24.58;;;;;;;2.08;100.00;101168.13;5093701;28;20111;-72
2023/01/26 01:45:53;;;;;;;47.55;21.23;;;;;;;2.10;100.00;101157.22;5093578;28;20035;-72
2023/01/26 01:48:48;;;;;;;47.10;24.05;;;;;;;2.11;100.00;101155.22;5058936;28;20032;-73
2023/01/26 01:51:24;;;;;;;53.17;21.10;;;;;;;2.08;100.00;101148.41;5075948;28;20052;-73
2023/01/26 01:53:50;;;;;;;51.95;21.15;;;;;;;2.06;100.00;101144.38;5093793;28;20035;-73
2023/01/26 01:56:20;;;;;;;49.92;20.25;;;;;;;2.04;100.00;101146.81;5058862;28;20078;-72
2023/01/26 01:58:56;;;;;;;51.67;21.10;;;;;;;2.00;100.00;101138.38;5076072;28;20039;-73
2023/01/26 02:01:21;;;;;;;59.35;22.90;;;;;;;2.05;100.00;101140.75;5075666;28;20115;-74
2023/01/26 02:03:51;;;;;;;60.35;24.70;;;;;;;2.10;100.00;101137.50;5093645;28;20044;-72
2023/01/26 02:06:53;;;;;;;57.53;23.85;;;;;;;2.07;100.00;101138.34;5062486;28;20072;-72
2023/01/26 02:12:07;;;;;;;51.60;23.20;;;;;;;2.05;100.00;101123.84;5082227;28;19927;-73
2023/01/26 02:14:35;;;;;;;50.75;23.00;;;;;;;2.04;100.00;101130.72;5097442;28;20024;-75
2023/01/26 02:17:02;;;;;;;51.22;21.63;;;;;;;2.04;100.00;101119.44;5097464;28;20028;-74
2023/01/26 02:20:02;;;;;;;58.58;23.45;;;;;;;1.98;100.00;101120.28;5097757;28;20024;-74
2023/01/26 02:22:33;;;;;;;53.38;21.83;;;;;;;1.97;100.00;101113.84;5097662;28;20116;-72
2023/01/26 02:25:17;;;;;;;66.73;24.17;;;;;;;1.89;100.00;101106.69;5097634;28;20103;-73
2023/01/26 02:27:50;;;;;;;54.90;20.42;;;;;;;1.86;100.00;101105.47;5094030;28;20150;-73
2023/01/26 02:30:16;;;;;;;60.90;22.13;;;;;;;1.89;100.00;101107.47;5097435;28;20404;-72
2023/01/26 02:32:42;;;;;;;58.75;23.02;;;;;;;1.94;100.00;101099.78;5079301;28;20024;-72
2023/01/26 02:35:09;;;;;;;68.05;23.45;;;;;;;1.96;100.00;101094.53;5096971;28;20358;-74
2023/01/26 02:37:35;;;;;;;64.25;22.88;;;;;;;1.92;100.00;101086.91;5079292;28;20045;-73
2023/01/26 02:40:22;;;;;;;61.28;25.02;;;;;;;1.85;100.00;101086.97;5078805;28;20390;-72
2023/01/26 02:42:48;;;;;;;67.43;24.48;;;;;;;1.79;100.00;101087.81;5097220;28;20020;-72
2023/01/26 02:45:16;;;;;;;62.90;22.88;;;;;;;1.75;100.00;101087.06;5097230;28;20036;-73
2023/01/26 02:47:43;;;;;;;63.90;23.20;;;;;;;1.78;100.00;101087.03;5097603;28;20032;-72
2023/01/26 02:50:10;;;;;;;64.90;23.23;;;;;;;1.81;100.00;101082.56;5096594;28;20040;-73
2023/01/26 02:52:38;;;;;;;61.85;24.92;;;;;;;1.86;100.00;101074.47;5096948;28;20403;-73
2023/01/26 02:57:51;;;;;;;67.57;26.70;;;;;;;1.90;100.00;101061.16;5081665;28;20495;-72
2023/01/26 03:00:19;;;;;;;68.85;24.20;;;;;;;1.93;100.00;101065.19;5078904;28;20103;-73
2023/01/26 03:02:47;;;;;;;69.75;26.38;;;;;;;1.95;100.00;101074.00;5078627;28;20085;-72
2023/01/26 03:05:12;;;;;;;65.20;25.00;;;;;;;1.95;100.00;101065.53;5061623;28;20036;-73
2023/01/26 03:07:39;;;;;;;73.70;27.42;;;;;;;1.98;100.00;101059.09;5078777;28;20054;-72
2023/01/26 03:10:07;;;;;;;62.72;27.05;;;;;;;2.03;100.00;101049.38;5062210;28;20473;-72
2023/01/26 03:12:33;;;;;;;61.53;26.48;;;;;;;2.07;100.00;101047.34;5096886;28;20028;-73
2023/01/26 03:17:43;;;;;;;64.57;25.65;;;;;;;2.15;100.00;101037.59;5079804;28;20042;-72
2023/01/26 03:28:27;;;;;;;68.47;27.23;;;;;;;1.89;100.00;101022.16;5096416;28;20097;-73
2023/01/26 03:30:55;;;;;;;57.08;23.40;;;;;;;1.88;100.00;101026.16;5096295;28;20060;-73
2023/01/26 03:33:23;;;;;;;53.88;23.45;;;;;;;1.91;100.00;101020.50;5061217;28;20032;-73
2023/01/26 03:35:52;;;;;;;58.30;26.05;;;;;;;1.90;100.00;101010.44;5074279;28;20056;-73
2023/01/26 03:38:18;;;;;;;64.05;25.42;;;;;;;1.94;100.00;101012.44;5074490;28;20024;-73
2023/01/26 03:57:16;;;;;;;69.28;26.02;;;;;;;1.98;100.00;100991.47;5075370;28;20081;-72
2023/01/26 03:59:43;;;;;;;60.38;24.77;;;;;;;1.91;100.00;100995.13;5074086;28;20058;-73
2023/01/26 04:10:32;;;;;;;54.85;24.00;;;;;;;1.73;100.00;100994.50;5074316;28;20047;-71
2023/01/26 04:21:32;;;;;;;53.53;24.08;;;;;;;1.77;100.00;100991.66;5075014;28;20044;-72
2023/01/26 04:23:59;;;;;;;48.42;22.75;;;;;;;1.73;100.00;100991.69;5075076;28;20020;-72
2023/01/26 04:26:33;;;;;;;41.22;19.48;;;;;;;1.70;100.00;100991.72;5073487;28;20036;-72
2023/01/26 04:29:04;;;;;;;44.80;20.35;;;;;;;1.69;100.00;100992.94;5073402;28;20059;-71
2023/01/26 04:31:32;;;;;;;40.42;18.08;;;;;;;1.65;100.00;100981.69;5073773;28;20125;-72
2023/01/26 04:34:03;;;;;;;41.28;19.48;;;;;;;1.63;100.00;100978.50;5073389;28;20042;-71
2023/01/26 04:36:30;;;;;;;43.00;20.08;;;;;;;1.61;100.00;100983.72;5087722;28;20051;-74
2023/01/26 04:38:57;;;;;;;42.25;19.55;;;;;;;1.61;100.00;100986.53;5076700;28;20070;-73
2023/01/26 04:41:23;;;;;;;45.35;20.75;;;;;;;1.63;100.00;100983.31;5043479;28;20028;-74
2023/01/26 04:43:57;;;;;;;43.30;21.08;;;;;;;1.61;100.00;100974.47;5093216;28;20028;-73
2023/01/26 04:46:24;;;;;;;43.70;19.35;;;;;;;1.52;100.00;100966.50;5094691;28;20034;-72
2023/01/26 04:48:58;;;;;;;45.30;20.95;;;;;;;1.51;100.00;100970.53;5094661;28;20058;-72
2023/01/26 04:51:24;;;;;;;46.45;20.10;;;;;;;1.51;100.00;100976.16;5094748;28;20032;-72
2023/01/26 04:53:50;;;;;;;46.70;20.67;;;;;;;1.50;100.00;100966.13;5094647;28;20028;-71
2023/01/26 04:56:26;;;;;;;43.65;20.98;;;;;;;1.53;100.00;100956.03;5094507;28;20060;-72
2023/01/26 04:58:52;;;;;;;40.90;20.15;;;;;;;1.53;100.00;100956.84;5094055;28;20024;-72
2023/01/26 05:01:19;;;;;;;41.38;19.95;;;;;;;1.55;100.00;100962.06;5076626;28;20034;-73
2023/01/26 05:03:46;;;;;;;39.13;19.40;;;;;;;1.58;100.00;100956.41;5075070;28;20024;-72
2023/01/26 05:06:13;;;;;;;45.17;20.27;;;;;;;1.61;100.00;100957.56;5076259;28;20131;-72
2023/01/26 05:08:40;;;;;;;42.70;19.05;;;;;;;1.62;100.00;100959.97;5076535;28;20116;-72
2023/01/26 05:11:06;;;;;;;44.25;20.17;;;;;;;1.70;100.00;100958.69;5076154;28;20055;-72
2023/01/26 05:13:34;;;;;;;42.40;19.92;;;;;;;1.72;100.00;100959.09;5094403;28;20059;-72
2023/01/26 05:16:03;;;;;;;41.97;18.63;;;;;;;1.74;100.00;100958.69;5074064;28;20089;-72
2023/01/26 05:18:30;;;;;;;48.60;20.80;;;;;;;1.77;100.00;100955.03;5039642;28;20461;-72
2023/01/26 05:20:57;;;;;;;42.05;21.55;;;;;;;1.73;100.00;100960.69;5039324;28;20090;-73
2023/01/26 05:23:24;;;;;;;42.78;19.00;;;;;;;1.68;100.00;100954.72;5073508;28;20027;-73
2023/01/26 05:25:50;;;;;;;34.45;17.90;;;;;;;1.65;100.00;100955.56;5073574;28;20028;-72
2023/01/26 05:28:16;;;;;;;37.10;18.50;;;;;;;1.65;100.00;100955.56;5073087;28;20392;-71
2023/01/26 05:30:42;;;;;;;39.95;19.10;;;;;;;1.63;100.00;100969.25;5073340;28;20024;-72
2023/01/26 05:33:34;;;;;;;41.35;19.10;;;;;;;1.62;100.00;100956.38;5037158;28;20048;-73
2023/01/26 05:36:04;;;;;;;;;;;;;;;1.64;100.00;100951.13;5073323;28;20483;-73
2023/01/26 05:38:31;;;;;;;37.35;17.55;;;;;;;1.64;100.00;100948.31;5073432;28;20281;-74
2023/01/26 05:40:58;;;;;;;35.28;18.55;;;;;;;1.62;100.00;100948.72;5054940;28;20568;-72
2023/01/26 05:43:23;;;;;;;46.88;19.67;;;;;;;1.60;100.00;100951.13;5072638;28;20033;-71
2023/01/26 05:45:52;;;;;;;47.28;18.30;;;;;;;1.56;100.00;100949.56;5055692;28;20082;-70
2023/01/26 05:48:19;;;;;;;40.60;18.38;;;;;;;1.56;100.00;100947.56;5073057;28;20524;-69
2023/01/26 05:50:45;;;;;;;40.67;19.23;;;;;;;1.56;100.00;100944.75;5073720;28;20028;-69
2023/01/26 05:53:12;;;;;;;43.42;21.50;;;;;;;1.57;100.00;100951.19;5072793;28;20051;-69
2023/01/26 05:55:38;;;;;;;37.78;19.38;;;;;;;1.57;100.00;100942.72;5073571;28;20051;-70
2023/01/26 05:58:04;;;;;;;39.60;18.85;;;;;;;1.58;100.00;100945.13;5070102;28;20052;-70
2023/01/26 06:00:31;;;;;;;41.17;20.30;;;;;;;1.59;100.00;100943.94;5073141;28;20051;-76
2023/01/26 06:02:56;;;;;;;38.53;18.45;;;;;;;1.57;100.00;100937.91;5073167;28;20059;-71
2023/01/26 06:05:24;;;;;;;37.13;20.25;;;;;;;1.56;100.00;100941.94;5073059;28;20048;-72
2023/01/26 06:07:50;;;;;;;39.65;21.77;;;;;;;1.53;100.00;100937.13;5073152;28;20381;-71
2023/01/26 06:10:21;;;;;;;42.42;22.60;;;;;;;1.56;100.00;100927.03;5070910;28;20036;-72
2023/01/26 06:12:48;;;;;;;;;;;;;;;1.59;100.00;100931.84;5073608;28;20449;-71
2023/01/26 06:15:13;;;;;;;45.40;20.60;;;;;;;1.63;100.00;100927.78;5073280;28;20282;-72
2023/01/26 06:17:39;;;;;;;43.53;20.88;;;;;;;1.59;100.00;100926.22;5073107;28;20496;-73
2023/01/26 06:20:06;;;;;;;45.53;21.60;;;;;;;1.66;100.00;100931.78;5051915;28;20041;-71
2023/01/26 06:22:46;;;;;;;40.08;20.42;;;;;;;1.66;100.00;100928.97;5055331;28;20047;-73
2023/01/26 06:25:15;;;;;;;43.67;20.05;;;;;;;1.63;100.00;100927.00;5072836;28;20024;-72
2023/01/26 06:27:45;;;;;;;36.67;19.10;;;;;;;1.64;100.00;100925.78;5073086;28;20035;-72
2023/01/26 06:30:14;;;;;;;38.35;21.23;;;;;;;1.64;100.00;100920.94;5084328;28;20043;-73
2023/01/26 06:32:39;;;;;;;40.20;20.52;;;;;;;1.65;100.00;100930.19;5084378;28;20054;-74
2023/01/26 06:35:09;;;;;;;40.92;19.85;;;;;;;1.67;100.00;100930.56;5091005;28;20509;-73
2023/01/26 06:37:36;;;;;;;45.97;21.30;;;;;;;1.65;100.00;100928.16;5088515;28;20456;-73
2023/01/26 06:40:02;;;;;;;47.92;21.42;;;;;;;1.66;100.00;100929.75;5091958;28;20099;-74
2023/01/26 06:42:35;;;;;;;62.17;21.52;;;;;;;1.64;100.00;100937.03;5091851;28;20047;-73
2023/01/26 06:45:04;;;;;;;46.55;21.67;;;;;;;1.66;100.00;100941.03;5092821;28;20069;-73
2023/01/26 06:47:29;;;;;;;40.00;19.40;;;;;;;1.69;100.00;100928.94;5073949;28;20051;-73
2023/01/26 06:49:56;;;;;;;45.65;21.80;;;;;;;1.72;100.00;100944.19;5091827;28;20064;-73
2023/01/26 06:52:34;;;;;;;45.30;20.40;;;;;;;1.71;100.00;100934.94;5095282;28;20032;-73
2023/01/26 06:55:21;;;;;;;43.92;19.95;;;;;;;1.71;100.00;100937.75;5077658;28;20024;-74
2023/01/26 06:57:47;;;;;;;45.83;19.85;;;;;;;1.71;100.00;100934.16;5077338;28;20430;-73
2023/01/26 07:00:12;;;;;;;59.15;22.40;;;;;;;1.72;100.00;100930.91;5095554;28;20081;-73
2023/01/26 07:02:38;;;;;;;45.10;21.85;;;;;;;1.77;100.00;100929.66;5095629;28;20026;-74
2023/01/26 07:05:04;;;;;;;58.70;22.75;;;;;;;1.79;100.00;100935.69;5077205;28;20028;-73
2023/01/26 07:07:33;;;;;;;47.08;23.27;;;;;;;1.83;100.00;100947.72;5077144;28;20032;-74
2023/01/26 07:09:58;;;;;;;52.15;27.00;;;;;;;1.75;100.00;100932.91;5095524;28;20085;-74
2023/01/26 07:12:25;;;;;;;60.55;27.42;;;;;;;1.80;100.00;100937.28;5096288;28;20020;-73
2023/01/26 07:14:50;;;;;;;59.60;25.92;;;;;;;1.81;100.00;100936.88;5096078;28;20024;-73
2023/01/26 07:17:17;;;;;;;69.80;28.73;;;;;;;1.82;100.00;100938.47;5096295;28;20023;-74
2023/01/26 07:19:44;;;;;;;64.00;29.80;;;;;;;1.77;100.00;100941.75;5096472;28;20058;-73
2023/01/26 07:22:13;;;;;;;62.55;28.48;;;;;;;1.78;100.00;100942.53;5096264;28;20404;-73
2023/01/26 07:24:41;;;;;;;66.00;31.58;;;;;;;1.82;100.00;100946.91;5078533;28;20063;-74
2023/01/26 07:27:07;;;;;;;70.32;31.30;;;;;;;1.85;100.00;100948.91;5096352;28;20028;-73
2023/01/26 07:29:32;;;;;;;67.35;29.65;;;;;;;1.85;100.00;100934.00;5096112;28;20465;-74
2023/01/26 07:31:59;;;;;;;69.72;31.45;;;;;;;1.87;100.00;100940.03;5077769;28;20027;-73
2023/01/26 07:34:25;;;;;;;71.63;30.35;;;;;;;1.87;100.00;100929.56;5096125;28;20031;-73
2023/01/26 07:36:52;;;;;;;65.50;29.27;;;;;;;1.88;100.00;100933.19;5095634;28;20048;-74
2023/01/26 07:39:18;;;;;;;59.40;28.30;;;;;;;1.82;100.00;100934.84;5096071;28;20066;-73
2023/01/26 07:41:45;;;;;;;69.15;28.50;;;;;;;1.77;100.00;100930.47;5095810;28;20034;-73
2023/01/26 07:44:10;;;;;;;58.92;26.02;;;;;;;1.78;100.00;100929.25;5095822;28;20559;-75
2023/01/26 07:46:37;;;;;;;77.30;29.00;;;;;;;1.75;100.00;100923.66;5095968;28;20040;-73
2023/01/26 07:49:03;;;;;;;56.70;26.80;;;;;;;1.79;100.00;100930.06;5095846;28;20040;-75
2023/01/26 07:51:29;;;;;;;67.97;29.13;;;;;;;1.76;100.00;100925.25;5095545;28;20034;-74
2023/01/26 07:53:57;;;;;;;73.18;27.95;;;;;;;1.67;100.00;100919.31;5095788;28;20035;-74
2023/01/26 07:56:32;;;;;;;57.10;27.55;;;;;;;1.69;100.00;100931.78;5095819;28;20094;-73
2023/01/26 07:58:59;;;;;;;62.85;29.10;;;;;;;1.69;100.00;100923.31;5095389;28;20024;-74
2023/01/26 08:01:26;;;;;;;58.80;25.65;;;;;;;1.72;100.00;100939.38;5095918;28;20020;-73
2023/01/26 08:03:52;;;;;;;61.92;29.95;;;;;;;1.77;100.00;100926.84;5094619;28;20059;-74
2023/01/26 08:06:18;;;;;;;57.88;27.40;;;;;;;1.79;100.00;100928.06;5095373;28;20377;-73
2023/01/26 08:08:49;;;;;;;57.85;26.27;;;;;;;1.85;100.00;100925.56;5094105;28;20036;-74
2023/01/26 08:11:15;;;;;;;58.80;27.30;;;;;;;1.89;100.00;100929.16;5095260;28;20111;-74
2023/01/26 08:13:41;;;;;;;62.05;29.50;;;;;;;1.90;100.00;100927.91;5094874;28;20157;-73
2023/01/26 08:16:10;;;;;;;55.97;27.65;;;;;;;2.02;100.00;100927.41;5095149;28;20117;-73
2023/01/26 08:18:37;;;;;;;64.43;29.50;;;;;;;2.12;100.00;100926.47;5077467;28;20124;-73
2023/01/26 08:21:03;;;;;;;62.05;27.27;;;;;;;2.17;100.00;100922.41;5094920;28;20019;-74
2023/01/26 08:23:30;;;;;;;55.60;28.42;;;;;;;2.25;100.00;100923.91;5095032;28;20027;-72
2023/01/26 08:26:00;;;;;;;68.88;30.17;;;;;;;2.26;100.00;100926.31;5076518;28;20465;-73
2023/01/26 08:28:25;;;;;;;48.40;23.95;;;;;;;2.29;100.00;100931.09;5076688;28;20034;-74
2023/01/26 08:30:51;;;;;;;55.65;25.73;;;;;;;2.26;100.00;100929.13;5094709;28;20029;-74
2023/01/26 08:33:16;;;;;;;49.38;24.50;;;;;;;2.32;100.00;100930.28;5093176;28;20115;-73
2023/01/26 08:35:42;;;;;;;64.03;25.60;;;;;;;2.30;100.00;100932.72;5094571;28;20048;-72
2023/01/26 08:38:07;;;;;;;53.33;26.60;;;;;;;2.26;100.00;100929.13;5094837;28;20062;-71
2023/01/26 08:40:33;;;;;;;52.72;25.23;;;;;;;2.14;100.00;100928.91;5060315;28;20123;-71
2023/01/26 08:43:00;;;;;;;52.95;23.90;;;;;;;2.16;100.00;100930.06;5077146;28;20067;-71
2023/01/26 08:45:25;;;;;;;54.65;22.73;;;;;;;2.09;100.00;100923.72;5077005;28;20051;-72
2023/01/26 08:47:51;;;;;;;45.50;23.75;;;;;;;2.11;100.00;100929.72;5094766;28;20457;-73
2023/01/26 08:50:16;;;;;;;59.15;24.50;;;;;;;2.13;100.00;100921.66;5094842;28;20028;-73
2023/01/26 08:52:43;;;;;;;47.90;22.35;;;;;;;2.17;100.00;100928.84;5094356;28;20043;-71
2023/01/26 08:55:08;;;;;;;49.05;23.17;;;;;;;2.22;100.00;100927.56;5094524;28;20032;-72
2023/01/26 08:57:34;;;;;;;45.10;22.10;;;;;;;2.25;100.00;100930.34;5095398;28;20070;-76
2023/01/26 08:59:59;;;;;;;45.22;23.55;;;;;;;2.23;100.00;100921.53;5094669;28;20103;-75
2023/01/26 09:02:25;;;;;;;52.40;23.25;;;;;;;2.25;100.00;100927.53;5091180;28;20032;-72
2023/01/26 09:04:50;;;;;;;45.33;22.15;;;;;;;2.18;100.00;100935.28;5094222;28;20031;-71
2023/01/26 09:07:16;;;;;;;45.67;21.58;;;;;;;2.07;100.00;100935.41;5094403;28;20024;-71
2023/01/26 09:09:41;;;;;;;47.00;23.63;;;;;;;2.04;100.00;100930.63;5075624;28;20062;-70
2023/01/26 09:12:07;;;;;;;45.65;24.83;;;;;;;2.10;100.00;100943.00;5094394;28;20040;-70
2023/01/26 09:14:32;;;;;;;51.03;24.50;;;;;;;2.10;100.00;100945.81;5094270;28;20032;-71
2023/01/26 09:16:58;;;;;;;47.70;22.50;;;;;;;2.16;100.00;100944.16;5094131;28;20024;-71
2023/01/26 09:19:24;;;;;;;46.15;22.88;;;;;;;2.13;100.00;100942.19;5093970;28;20452;-73
2023/01/26 09:21:54;;;;;;;44.55;22.55;;;;;;;2.17;100.00;100940.13;5093623;28;20040;-72
2023/01/26 09:24:23;;;;;;;41.35;20.52;;;;;;;2.18;100.00;100936.09;5075798;28;20039;-72
2023/01/26 09:26:50;;;;;;;46.25;21.50;;;;;;;2.17;100.00;100928.84;5076357;28;20038;-73
2023/01/26 09:29:15;;;;;;;41.25;20.50;;;;;;;2.12;100.00;100928.50;5093754;28;20066;-70
2023/01/26 09:31:41;;;;;;;40.88;20.80;;;;;;;2.10;100.00;100928.91;5093679;28;20056;-72
2023/01/26 09:34:07;;;;;;;41.75;21.00;;;;;;;2.04;100.00;100924.16;5075359;28;20439;-73
2023/01/26 09:36:34;;;;;;;38.47;22.10;;;;;;;2.13;100.00;100925.28;5091637;28;20056;-74
2023/01/26 09:39:00;;;;;;;54.85;22.20;;;;;;;2.19;100.00;100923.56;5073370;28;20033;-73
2023/01/26 09:41:48;;;;;;;42.70;19.88;;;;;;;2.29;100.00;100928.28;5073890;28;20024;-73
2023/01/26 09:44:25;;;;;;;44.90;22.38;;;;;;;2.35;100.00;100917.34;5073624;28;20359;-73
2023/01/26 09:47:00;;;;;;;57.17;22.63;;;;;;;2.45;100.00;100913.59;5073714;28;20078;-73
2023/01/26 09:49:40;;;;;;;45.38;20.73;;;;;;;2.49;100.00;100902.28;5073568;28;20052;-72
2023/01/26 09:52:32;;;;;;;46.13;19.58;;;;;;;2.61;100.00;100907.34;5073729;28;20028;-74
2023/01/26 09:55:01;;;;;;;40.28;21.42;;;;;;;2.66;100.00;100904.84;5055784;28;20064;-74
2023/01/26 09:57:37;;;;;;;35.45;19.45;;;;;;;2.66;100.00;100912.53;5055522;28;20036;-74
2023/01/26 10:00:44;;;;;;;37.03;18.35;;;;;;;2.82;100.00;100898.59;5055414;28;20036;-73
2023/01/26 10:03:15;;;;;;;51.40;21.00;;;;;;;2.99;100.00;100906.00;4991885;28;20034;-73
2023/01/26 10:05:54;;;;;;;38.33;19.27;;;;;;;3.06;100.00;100899.44;4992403;28;20045;-74
2023/01/26 10:08:22;;;;;;;50.95;19.23;;;;;;;3.11;100.00;100893.31;5040278;28;20048;-72
2023/01/26 10:10:52;;;;;;;45.55;20.25;;;;;;;3.09;100.00;100890.91;5073366;28;20039;-73
2023/01/26 10:13:19;;;;;;;46.03;19.40;;;;;;;3.10;100.00;100897.34;5073154;28;20062;-72
2023/01/26 10:15:49;;;;;;;44.75;19.60;;;;;;;3.10;100.00;100895.34;5038698;28;20040;-73
2023/01/26 10:18:23;;;;;;;46.03;21.02;;;;;;;3.06;100.00;100894.59;5055353;28;20071;-73
2023/01/26 10:20:51;;;;;;;36.28;18.10;;;;;;;3.11;100.00;100893.31;5055437;28;20119;-74
2023/01/26 10:23:22;;;;;;;37.75;23.00;;;;;;;3.22;100.00;100888.31;5055536;28;20039;-72
2023/01/26 10:25:50;;;;;;;48.00;21.80;;;;;;;3.18;100.00;100885.50;5040037;28;20109;-71
2023/01/26 10:28:21;;;;;;;42.08;20.10;;;;;;;3.26;100.00;100889.03;5059135;28;20070;-75
2023/01/26 10:30:50;;;;;;;39.33;19.45;;;;;;;3.26;100.00;100886.22;5076942;28;20028;-73
2023/01/26 10:33:24;;;;;;;41.03;20.38;;;;;;;3.25;100.00;100876.13;5076839;28;20413;-73
2023/01/26 10:35:49;;;;;;;35.95;19.55;;;;;;;3.26;100.00;100868.47;5055916;28;20475;-73
2023/01/26 10:38:34;;;;;;;42.67;19.92;;;;;;;3.22;100.00;100874.19;5056939;28;20526;-74
2023/01/26 10:41:04;;;;;;;34.55;18.95;;;;;;;3.16;100.00;100881.53;5056888;28;20060;-74
2023/01/26 10:43:52;;;;;;;34.20;17.60;;;;;;;3.16;100.00;100868.22;5056879;28;20536;-74
2023/01/26 10:46:39;;;;;;;38.10;20.42;;;;;;;3.17;100.00;100877.50;5056778;28;20075;-73
2023/01/26 10:49:14;;;;;;;38.17;20.90;;;;;;;3.19;100.00;100877.84;5057163;28;20082;-73
2023/01/26 10:51:43;;;;;;;43.75;19.10;;;;;;;3.20;100.00;100876.63;5055452;28;20033;-75
2023/01/26 10:54:18;;;;;;;43.88;19.30;;;;;;;3.18;100.00;100882.69;5056908;28;20036;-74
2023/01/26 10:57:09;;;;;;;37.72;18.65;;;;;;;3.12;100.00;100881.59;5056695;28;20036;-75
2023/01/26 10:59:47;;;;;;;38.97;19.90;;;;;;;3.10;100.00;100883.25;5054959;28;20044;-74
2023/01/26 11:02:17;;;;;;;41.10;20.83;;;;;;;3.03;100.00;100884.13;5056202;28;20116;-74
2023/01/26 11:05:05;;;;;;;41.38;20.98;;;;;;;2.96;100.00;100881.44;5056143;28;20036;-73
2023/01/26 11:07:39;;;;;;;42.38;21.42;;;;;;;2.85;100.00;100872.34;5056151;28;20123;-74
2023/01/26 11:10:24;;;;;;;43.78;19.80;;;;;;;2.84;100.00;100878.41;5056237;28;20039;-74
2023/01/26 11:12:51;;;;;;;37.40;18.08;;;;;;;2.88;100.00;100874.31;5054460;28;20385;-74
2023/01/26 11:15:22;;;;;;;49.10;21.50;;;;;;;2.95;100.00;100868.56;5054356;28;20516;-73
2023/01/26 11:17:51;;;;;;;36.30;18.25;;;;;;;3.04;100.00;100865.19;5055832;28;20032;-71
2023/01/26 11:20:54;;;;;;;42.88;21.40;;;;;;;3.19;100.00;100852.44;5055915;28;20040;-74
2023/01/26 11:23:27;;;;;;;43.50;22.52;;;;;;;3.23;100.00;100844.69;5055775;28;20466;-71
2023/01/26 11:26:30;;;;;;;38.88;20.00;;;;;;;3.42;100.00;100846.00;5056000;28;20024;-72
2023/01/26 11:29:17;;;;;;;41.38;21.33;;;;;;;3.48;100.00;100841.44;5056045;28;20017;-72
2023/01/26 11:31:54;;;;;;;42.28;21.08;;;;;;;3.52;100.00;100845.03;5056095;28;20033;-73
2023/01/26 11:34:52;;;;;;;48.78;24.13;;;;;;;3.52;100.00;100840.16;5055757;28;20033;-72
2023/01/26 11:37:45;;;;;;;50.60;24.55;;;;;;;3.51;100.00;100837.78;5073354;28;20139;-73
2023/01/26 11:40:23;;;;;;;;;;;;;;;3.52;100.00;100842.19;5058751;28;20029;-74
2023/01/26 11:43:26;;;;;;;62.35;24.23;;;;;;;3.56;100.00;100840.91;5076223;28;19908;-74
2023/01/26 11:46:03;;;;;;;45.70;24.23;;;;;;;3.56;100.00;100838.06;5076026;28;20028;-74
2023/01/26 11:48:28;;;;;;;46.53;22.70;;;;;;;3.57;100.00;100844.53;5058208;28;20474;-74
2023/01/26 11:51:05;;;;;;;53.97;22.48;;;;;;;3.51;100.00;100834.94;5075631;28;20054;-75
2023/01/26 11:53:41;;;;;;;51.75;24.83;;;;;;;3.48;100.00;100824.47;5057594;28;20033;-75
2023/01/26 11:56:31;;;;;;;46.95;21.40;;;;;;;3.32;100.00;100825.19;5057324;28;20653;-74
2023/01/26 11:59:26;;;;;;;47.80;24.02;;;;;;;3.28;100.00;100827.25;5075664;28;20111;-75
2023/01/26 12:02:02;;;;;;;41.53;23.08;;;;;;;3.28;100.00;100824.44;5058012;28;20036;-79
2023/01/26 12:04:30;;;;;;;49.22;22.73;;;;;;;3.31;100.00;100817.94;5075690;28;20070;-77
2023/01/26 12:07:25;;;;;;;46.30;24.65;;;;;;;3.25;100.00;100810.38;5043059;28;20112;-78
2023/01/26 12:09:52;;;;;;;51.55;24.52;;;;;;;3.15;100.00;100798.84;5058526;28;20080;-75
2023/01/26 12:12:42;;;;;;;44.60;23.98;;;;;;;3.23;100.00;100800.31;5077090;28;20031;-73
2023/01/26 12:15:14;;;;;;;48.88;25.35;;;;;;;3.35;100.00;100795.28;5095204;28;20032;-71